createdAt,value
2023-05-25T00:01:02.017Z,101833.25
2023-05-25T00:03:31.473Z,101839.22
2023-05-25T00:05:59.001Z,101830.94
2023-05-25T00:08:25.501Z,101832.59
2023-05-25T00:10:51.969Z,101834.25
2023-05-25T00:13:18.470Z,101834.75
2023-05-25T00:15:45.410Z,101831.59
2023-05-25T00:18:13.095Z,101832.06
2023-05-25T00:20:39.970Z,101832.88
2023-05-25T00:23:06.397Z,101830.91
2023-05-25T00:25:32.774Z,101832.53
2023-05-25T00:27:59.125Z,101832.53
2023-05-25T00:30:25.760Z,101822.16
2023-05-25T00:32:53.999Z,101825.78
2023-05-25T00:35:20.824Z,101822.97
2023-05-25T00:37:47.621Z,101830.56
2023-05-25T00:40:18.833Z,101830.91
2023-05-25T00:42:47.992Z,101829.25
2023-05-25T00:45:14.629Z,101830.59
2023-05-25T00:47:41.513Z,101830.13
2023-05-25T00:50:09.701Z,101830.34
2023-05-25T00:52:36.436Z,101831.47
2023-05-25T00:55:03.523Z,101832.50
2023-05-25T00:57:34.094Z,101828.44
2023-05-25T01:00:02.245Z,101824.31
2023-05-25T01:02:29.208Z,101823.03
2023-05-25T01:04:59.833Z,101830.94
2023-05-25T01:07:27.979Z,101827.19
2023-05-25T01:09:58.640Z,101829.03
2023-05-25T01:12:35.221Z,101834.50
2023-05-25T01:15:04.523Z,101829.25
2023-05-25T01:17:30.954Z,101821.50
2023-05-25T01:22:34.112Z,101823.53
2023-05-25T01:25:07.186Z,101829.00
2023-05-25T01:27:43.591Z,101828.88
2023-05-25T01:30:13.991Z,101820.47
2023-05-25T01:32:42.721Z,101823.28
2023-05-25T01:35:10.048Z,101822.78
2023-05-25T01:37:37.661Z,101829.53
2023-05-25T01:40:08.493Z,101833.84
2023-05-25T01:42:34.978Z,101831.72
2023-05-25T01:45:01.716Z,101836.84
2023-05-25T01:47:37.473Z,101832.25
2023-05-25T01:50:29.456Z,101836.06
2023-05-25T01:53:15.622Z,101843.97
2023-05-25T01:55:54.888Z,101841.50
2023-05-25T01:58:23.338Z,101840.69
2023-05-25T02:00:51.525Z,101847.44
2023-05-25T02:03:18.692Z,101842.16
2023-05-25T02:05:46.365Z,101846.47
2023-05-25T02:08:13.088Z,101838.41
2023-05-25T02:10:39.539Z,101841.19
2023-05-25T02:13:06.038Z,101836.47
2023-05-25T02:15:33.821Z,101833.16
2023-05-25T02:18:00.768Z,101837.94
2023-05-25T02:20:28.425Z,101839.09
2023-05-25T02:22:55.210Z,101841.38
2023-05-25T02:25:21.645Z,101838.47
2023-05-25T02:27:48.296Z,101837.97
2023-05-25T02:30:15.064Z,101843.91
2023-05-25T02:32:41.754Z,101838.66
2023-05-25T02:35:08.519Z,101838.97
2023-05-25T02:37:35.331Z,101842.94
2023-05-25T02:40:01.838Z,101841.28
2023-05-25T02:42:28.471Z,101848.03
2023-05-25T02:44:54.885Z,101844.75
2023-05-25T02:47:21.778Z,101845.09
2023-05-25T02:49:48.457Z,101845.72
2023-05-25T02:52:14.817Z,101860.03
2023-05-25T02:54:41.915Z,101854.28
2023-05-25T02:57:08.650Z,101850.69
2023-05-25T02:59:35.138Z,101853.81
2023-05-25T03:02:01.527Z,101846.59
2023-05-25T03:04:28.499Z,101846.91
2023-05-25T03:06:54.877Z,101855.63
2023-05-25T03:09:21.565Z,101860.72
2023-05-25T03:11:48.257Z,101856.63
2023-05-25T03:14:14.714Z,101860.25
2023-05-25T03:16:42.684Z,101864.19
2023-05-25T03:19:10.585Z,101859.75
2023-05-25T03:21:37.797Z,101864.53
2023-05-25T03:24:05.550Z,101854.50
2023-05-25T03:26:32.187Z,101861.25
2023-05-25T03:28:58.805Z,101860.75
2023-05-25T03:31:26.475Z,101863.56
2023-05-25T03:33:53.099Z,101868.31
2023-05-25T03:36:19.775Z,101869.47
2023-05-25T03:38:46.700Z,101875.88
2023-05-25T03:41:13.326Z,101880.63
2023-05-25T03:43:39.976Z,101883.44
2023-05-25T03:46:08.796Z,101885.41
2023-05-25T03:48:35.420Z,101891.81
2023-05-25T03:51:01.809Z,101887.38
2023-05-25T03:53:28.405Z,101900.53
2023-05-25T03:55:55.104Z,101899.72
2023-05-25T03:58:22.529Z,101888.38
2023-05-25T04:00:52.638Z,101891.69
2023-05-25T04:03:21.129Z,101892.97
2023-05-25T04:05:47.971Z,101896.28
2023-05-25T04:08:18.012Z,101894.44
2023-05-25T04:10:46.129Z,101895.28
2023-05-25T04:13:14.440Z,101897.72
2023-05-25T04:15:41.149Z,101905.78
2023-05-25T04:18:07.685Z,101912.69
2023-05-25T04:20:34.361Z,101904.78
2023-05-25T04:23:00.854Z,101908.09
2023-05-25T04:25:29.535Z,101909.84
2023-05-25T04:27:56.903Z,101915.59
2023-05-25T04:30:23.658Z,101924.66
2023-05-25T04:32:50.439Z,101920.06
2023-05-25T04:35:17.098Z,101917.06
2023-05-25T04:37:43.576Z,101918.06
2023-05-25T04:40:14.431Z,101916.22
2023-05-25T04:42:41.877Z,101916.88
2023-05-25T04:45:10.256Z,101925.06
2023-05-25T04:47:37.753Z,101925.69
2023-05-25T04:50:04.415Z,101915.84
2023-05-25T04:52:30.756Z,101928.47
2023-05-25T04:54:59.427Z,101923.84
2023-05-25T04:57:28.613Z,101918.06
2023-05-25T04:59:55.109Z,101924.28
2023-05-25T05:02:21.795Z,101930.84
2023-05-25T05:04:48.477Z,101930.66
2023-05-25T05:07:14.938Z,101930.47
2023-05-25T05:09:44.260Z,101938.34
2023-05-25T05:12:12.079Z,101942.91
2023-05-25T05:14:38.866Z,101947.19
2023-05-25T05:17:05.626Z,101948.16
2023-05-25T05:19:33.232Z,101957.16
2023-05-25T05:22:01.374Z,101956.81
2023-05-25T05:24:30.499Z,101967.34
2023-05-25T05:26:58.969Z,101960.59
2023-05-25T05:29:27.037Z,101969.81
2023-05-25T05:31:55.590Z,101977.38
2023-05-25T05:34:22.096Z,101982.34
2023-05-25T05:36:57.313Z,101980.03
2023-05-25T05:39:27.315Z,101984.09
2023-05-25T05:41:54.273Z,101989.53
2023-05-25T05:44:21.587Z,101991.78
2023-05-25T05:46:48.390Z,101996.22
2023-05-25T05:49:15.760Z,101994.75
2023-05-25T05:51:42.402Z,101993.72
2023-05-25T05:54:08.864Z,101996.66
2023-05-25T05:56:37.028Z,102000.75
2023-05-25T05:59:05.342Z,102003.38
2023-05-25T06:01:34.843Z,102006.31
2023-05-25T06:04:01.483Z,102003.16
2023-05-25T06:06:28.566Z,102014.84
2023-05-25T06:08:55.376Z,102010.91
2023-05-25T06:11:22.046Z,102011.81
2023-05-25T06:13:48.729Z,102010.69
2023-05-25T06:16:15.298Z,102014.31
2023-05-25T06:18:41.838Z,102014.63
2023-05-25T06:21:08.655Z,102009.03
2023-05-25T06:23:35.825Z,102004.59
2023-05-25T06:26:06.366Z,102019.09
2023-05-25T06:28:34.917Z,102011.97
2023-05-25T06:31:02.292Z,102018.06
2023-05-25T06:33:28.748Z,102012.72
2023-05-25T06:35:58.270Z,102015.19
2023-05-25T06:38:24.881Z,102015.66
2023-05-25T06:40:51.312Z,102027.84
2023-05-25T06:43:19.187Z,102026.69
2023-05-25T06:45:46.312Z,102035.69
2023-05-25T06:48:12.968Z,102029.75
2023-05-25T06:50:40.271Z,102033.03
2023-05-25T06:53:06.782Z,102033.50
2023-05-25T06:55:33.399Z,102037.94
2023-05-25T06:58:00.091Z,102044.41
2023-05-25T07:00:26.926Z,102044.03
2023-05-25T07:02:53.880Z,102037.72
2023-05-25T07:05:20.837Z,102039.03
2023-05-25T07:07:48.676Z,102040.81
2023-05-25T07:10:15.227Z,102042.94
2023-05-25T07:12:41.712Z,102037.47
2023-05-25T07:15:08.810Z,102035.16
2023-05-25T07:17:36.672Z,102046.03
2023-05-25T07:20:04.676Z,102045.66
2023-05-25T07:22:32.454Z,102042.19
2023-05-25T07:24:59.178Z,102044.78
2023-05-25T07:27:26.153Z,102046.53
2023-05-25T07:29:52.570Z,102039.44
2023-05-25T07:32:19.301Z,102043.16
2023-05-25T07:34:45.685Z,102044.13
2023-05-25T07:37:12.107Z,102053.84
2023-05-25T07:39:40.687Z,102056.75
2023-05-25T07:42:07.029Z,102062.63
2023-05-25T07:44:33.875Z,102061.25
2023-05-25T07:47:00.392Z,102065.38
2023-05-25T07:49:28.401Z,102063.00
2023-05-25T07:51:55.137Z,102067.59
2023-05-25T07:54:21.942Z,102063.28
2023-05-25T07:56:48.367Z,102058.25
2023-05-25T07:59:14.811Z,102076.88
2023-05-25T08:01:41.334Z,102078.63
2023-05-25T08:04:08.135Z,102077.91
2023-05-25T08:06:34.676Z,102079.56
2023-05-25T08:09:02.960Z,102069.16
2023-05-25T08:11:29.454Z,102071.59
2023-05-25T08:13:55.990Z,102065.19
2023-05-25T08:16:24.752Z,102069.63
2023-05-25T08:18:51.668Z,102066.44
2023-05-25T08:21:18.629Z,102072.06
2023-05-25T08:23:45.297Z,102079.00
2023-05-25T08:26:29.064Z,102076.53
2023-05-25T08:28:58.724Z,102082.97
2023-05-25T08:31:25.171Z,102084.16
2023-05-25T08:33:52.926Z,102085.28
2023-05-25T08:36:19.699Z,102088.47
2023-05-25T08:38:46.311Z,102094.06
2023-05-25T08:41:13.276Z,102093.25
2023-05-25T08:43:41.778Z,102101.69
2023-05-25T08:46:09.082Z,102094.91
2023-05-25T08:48:41.654Z,102104.97
2023-05-25T08:51:11.657Z,102102.16
2023-05-25T08:53:40.669Z,102103.31
2023-05-25T08:56:13.711Z,102104.50
2023-05-25T08:58:46.353Z,102106.50
2023-05-25T09:01:18.483Z,102100.88
2023-05-25T09:03:46.673Z,102110.13
2023-05-25T09:06:14.150Z,102108.13
2023-05-25T09:08:41.047Z,102099.69
2023-05-25T09:11:08.054Z,102113.75
2023-05-25T09:13:35.565Z,102109.28
2023-05-25T09:16:02.247Z,102120.53
2023-05-25T09:18:28.765Z,102108.00
2023-05-25T09:20:55.849Z,102116.41
2023-05-25T09:23:24.014Z,102114.78
2023-05-25T09:25:51.543Z,102122.41
2023-05-25T09:30:53.219Z,102120.03
2023-05-25T09:33:20.207Z,102118.53
2023-05-25T09:35:49.166Z,102112.25
2023-05-25T09:38:17.044Z,102109.53
2023-05-25T09:40:44.955Z,102122.06
2023-05-25T09:43:17.215Z,102116.22
2023-05-25T09:45:52.358Z,102115.66
2023-05-25T09:48:23.392Z,102117.78
2023-05-25T09:50:51.404Z,102116.75
2023-05-25T09:53:18.906Z,102121.66
2023-05-25T09:55:53.729Z,102123.31
2023-05-25T09:58:24.942Z,102123.75
2023-05-25T10:00:54.613Z,102125.41
2023-05-25T10:03:21.670Z,102127.50
2023-05-25T10:05:48.628Z,102129.97
2023-05-25T10:08:17.774Z,102131.28
2023-05-25T10:10:45.578Z,102125.75
2023-05-25T10:13:13.783Z,102135.94
2023-05-25T10:15:43.144Z,102131.25
2023-05-25T10:18:12.239Z,102131.75
2023-05-25T10:20:38.878Z,102133.00
2023-05-25T10:23:10.754Z,102135.59
2023-05-25T10:25:44.833Z,102135.25
2023-05-25T10:28:18.373Z,102138.66
2023-05-25T10:30:45.575Z,102133.13
2023-05-25T10:33:12.622Z,102134.06
2023-05-25T10:36:01.538Z,102135.00
2023-05-25T10:38:31.474Z,102136.03
2023-05-25T10:40:59.220Z,102137.56
2023-05-25T10:43:27.919Z,102128.16
2023-05-25T10:45:56.907Z,102129.09
2023-05-25T10:48:34.942Z,102126.03
2023-05-25T10:51:01.572Z,102122.97
2023-05-25T10:53:29.358Z,102128.72
2023-05-25T10:56:22.388Z,102133.28
2023-05-25T10:58:49.172Z,102129.50
2023-05-25T11:01:16.135Z,102125.50
2023-05-25T11:03:50.267Z,102129.94
2023-05-25T11:06:22.147Z,102117.88
2023-05-25T11:08:56.455Z,102117.16
2023-05-25T11:11:49.771Z,102113.53
2023-05-25T11:14:30.544Z,102122.53
2023-05-25T11:17:18.723Z,102115.03
2023-05-25T11:19:53.635Z,102127.28
2023-05-25T11:22:31.241Z,102119.41
2023-05-25T11:24:59.864Z,102113.16
2023-05-25T11:27:33.246Z,102107.25
2023-05-25T11:30:00.516Z,102104.28
2023-05-25T11:32:28.775Z,102099.91
2023-05-25T11:34:58.137Z,102098.03
2023-05-25T11:37:29.470Z,102090.84
2023-05-25T11:39:55.962Z,102083.78
2023-05-25T11:42:24.324Z,102085.50
2023-05-25T11:44:51.332Z,102093.75
2023-05-25T11:47:22.982Z,102082.59
2023-05-25T11:49:50.244Z,102093.25
2023-05-25T11:52:19.273Z,102087.22
2023-05-25T11:54:46.391Z,102089.34
2023-05-25T11:57:26.313Z,102090.03
2023-05-25T11:59:54.446Z,102078.50
2023-05-25T12:02:22.201Z,102083.75
2023-05-25T12:05:04.678Z,102092.59
2023-05-25T12:07:32.021Z,102085.03
2023-05-25T12:10:09.879Z,102084.94
2023-05-25T12:12:47.530Z,102087.75
2023-05-25T12:15:22.311Z,102082.13
2023-05-25T12:17:49.325Z,102095.84
2023-05-25T12:20:17.490Z,102084.94
2023-05-25T12:22:47.091Z,102093.41
2023-05-25T12:25:16.465Z,102085.41
2023-05-25T12:27:44.812Z,102089.88
2023-05-25T12:30:11.733Z,102082.22
2023-05-25T12:32:55.117Z,102084.94
2023-05-25T12:35:21.892Z,102073.75
2023-05-25T12:37:48.313Z,102078.22
2023-05-25T12:40:20.567Z,102077.78
2023-05-25T12:42:56.606Z,102074.94
2023-05-25T12:45:23.620Z,102075.84
2023-05-25T12:47:50.383Z,102069.38
2023-05-25T12:50:17.979Z,102063.41
2023-05-25T12:52:46.555Z,102072.28
2023-05-25T12:55:25.982Z,102065.84
2023-05-25T12:58:06.928Z,102063.13
2023-05-25T13:00:41.387Z,102067.66
2023-05-25T13:03:09.452Z,102066.56
2023-05-25T13:05:37.510Z,102070.25
2023-05-25T13:08:05.526Z,102075.16
2023-05-25T13:10:36.679Z,102073.63
2023-05-25T13:13:04.434Z,102068.00
2023-05-25T13:15:30.914Z,102072.44
2023-05-25T13:18:00.353Z,102062.34
2023-05-25T13:20:31.293Z,102064.34
2023-05-25T13:22:58.368Z,102067.53
2023-05-25T13:25:28.118Z,102065.06
2023-05-25T13:27:55.987Z,102060.63
2023-05-25T13:30:23.133Z,102058.63
2023-05-25T13:32:51.839Z,102057.81
2023-05-25T13:35:23.930Z,102053.41
2023-05-25T13:37:51.255Z,102053.88
2023-05-25T13:40:18.456Z,102052.31
2023-05-25T13:42:45.187Z,102057.56
2023-05-25T13:45:11.901Z,102051.59
2023-05-25T13:47:39.226Z,102058.84
2023-05-25T13:50:07.296Z,102048.38
2023-05-25T13:52:36.660Z,102042.38
2023-05-25T13:55:03.295Z,102043.22
2023-05-25T13:57:29.673Z,102041.63
2023-05-25T13:59:56.221Z,102034.94
2023-05-25T14:02:22.722Z,102039.84
2023-05-25T14:04:49.360Z,102033.44
2023-05-25T14:07:15.856Z,102034.72
2023-05-25T14:09:42.427Z,102031.13
2023-05-25T14:12:09.225Z,102025.56
2023-05-25T14:14:35.657Z,102030.91
2023-05-25T14:17:02.118Z,102028.19
2023-05-25T14:19:29.803Z,102030.28
2023-05-25T14:22:11.694Z,102033.16
2023-05-25T14:24:39.699Z,102025.94
2023-05-25T14:27:07.298Z,102020.31
2023-05-25T14:29:34.016Z,102018.28
2023-05-25T14:32:00.937Z,102015.09
2023-05-25T14:34:27.880Z,102020.81
2023-05-25T14:36:55.907Z,102010.81
2023-05-25T14:39:22.464Z,102018.50
2023-05-25T14:41:50.206Z,102014.56
2023-05-25T14:44:16.837Z,102015.06
2023-05-25T14:46:43.621Z,102013.59
2023-05-25T14:49:14.223Z,102012.44
2023-05-25T14:51:40.596Z,102012.50
2023-05-25T14:54:08.314Z,102018.66
2023-05-25T14:56:37.592Z,102017.16
2023-05-25T14:59:04.058Z,102005.47
2023-05-25T15:01:32.308Z,102009.09
2023-05-25T15:03:58.945Z,102003.09
2023-05-25T15:06:25.457Z,102015.22
2023-05-25T15:08:52.076Z,102001.09
2023-05-25T15:11:18.857Z,102006.34
2023-05-25T15:13:46.149Z,102002.31
2023-05-25T15:16:14.007Z,101999.94
2023-05-25T15:18:40.533Z,102000.38
2023-05-25T15:21:08.518Z,102010.13
2023-05-25T15:23:35.060Z,102005.28
2023-05-25T15:26:04.359Z,101998.00
2023-05-25T15:28:31.425Z,101999.19
2023-05-25T15:31:02.789Z,102005.66
2023-05-25T15:33:47.141Z,101997.63
2023-05-25T15:36:16.480Z,102004.91
2023-05-25T15:38:45.849Z,101996.03
2023-05-25T15:41:15.021Z,101988.75
2023-05-25T15:43:44.179Z,101989.66
2023-05-25T15:46:11.963Z,101986.81
2023-05-25T15:48:39.186Z,101986.81
2023-05-25T15:51:05.649Z,101992.03
2023-05-25T15:53:33.525Z,101983.91
2023-05-25T15:55:59.946Z,101985.94
2023-05-25T15:58:26.353Z,101973.81
2023-05-25T16:00:53.827Z,101983.13
2023-05-25T16:03:20.267Z,101980.28
2023-05-25T16:05:46.858Z,101977.53
2023-05-25T16:08:14.238Z,101977.94
2023-05-25T16:10:40.688Z,101980.44
2023-05-25T16:13:07.361Z,101974.81
2023-05-25T16:15:34.311Z,101974.81
2023-05-25T16:18:01.448Z,101975.25
2023-05-25T16:20:27.998Z,101971.22
2023-05-25T16:22:54.779Z,101975.25
2023-05-25T16:25:21.497Z,101966.78
2023-05-25T16:27:47.850Z,101976.06
2023-05-25T16:30:14.651Z,101977.69
2023-05-25T16:32:41.372Z,101966.41
2023-05-25T16:35:09.304Z,101964.84
2023-05-25T16:37:36.085Z,101971.72
2023-05-25T16:40:02.634Z,101975.44
2023-05-25T16:42:33.352Z,101966.19
2023-05-25T16:44:59.723Z,101973.53
2023-05-25T16:47:26.131Z,101974.41
2023-05-25T16:49:52.750Z,101964.34
2023-05-25T16:52:19.115Z,101969.69
2023-05-25T16:54:45.617Z,101971.31
2023-05-25T16:57:12.158Z,101967.28
2023-05-25T16:59:39.561Z,101969.75
2023-05-25T17:02:06.611Z,101968.53
2023-05-25T17:04:33.046Z,101965.28
2023-05-25T17:06:59.513Z,101966.91
2023-05-25T17:09:27.277Z,101970.09
2023-05-25T17:11:54.186Z,101978.22
2023-05-25T17:14:20.751Z,101968.47
2023-05-25T17:16:47.388Z,101965.22
2023-05-25T17:19:15.208Z,101969.63
2023-05-25T17:21:41.947Z,101964.78
2023-05-25T17:24:08.488Z,101963.97
2023-05-25T17:26:35.214Z,101960.31
2023-05-25T17:29:03.139Z,101967.56
2023-05-25T17:31:30.258Z,101963.53
2023-05-25T17:33:56.813Z,101965.56
2023-05-25T17:36:23.530Z,101962.28
2023-05-25T17:38:50.186Z,101959.09
2023-05-25T17:41:17.210Z,101950.97
2023-05-25T17:43:46.259Z,101959.44
2023-05-25T17:46:12.749Z,101959.44
2023-05-25T17:48:39.591Z,101960.66
2023-05-25T17:51:06.043Z,101964.69
2023-05-25T17:53:32.695Z,101960.22
2023-05-25T17:56:01.538Z,101968.31
2023-05-25T17:58:27.913Z,101965.50
2023-05-25T18:00:54.384Z,101966.69
2023-05-25T18:03:22.341Z,101966.69
2023-05-25T18:05:48.789Z,101968.69
2023-05-25T18:08:15.775Z,101969.53
2023-05-25T18:10:42.411Z,101962.25
2023-05-25T18:13:09.915Z,101965.06
2023-05-25T18:15:36.349Z,101963.41
2023-05-25T18:18:05.821Z,101961.38
2023-05-25T18:20:32.657Z,101959.75
2023-05-25T18:23:00.663Z,101962.91
2023-05-25T18:25:27.366Z,101968.97
2023-05-25T18:27:53.757Z,101968.53
2023-05-25T18:30:20.253Z,101973.75
2023-05-25T18:32:47.033Z,101973.31
2023-05-25T18:35:14.574Z,101975.69
2023-05-25T18:37:41.145Z,101973.63
2023-05-25T18:40:08.460Z,101976.00
2023-05-25T18:42:35.309Z,101968.31
2023-05-25T18:45:01.948Z,101967.03
2023-05-25T18:47:28.420Z,101967.78
2023-05-25T18:49:54.954Z,101968.56
2023-05-25T18:52:22.548Z,101972.94
2023-05-25T18:54:49.587Z,101968.88
2023-05-25T18:57:17.785Z,101969.63
2023-05-25T18:59:45.655Z,101972.38
2023-05-25T19:02:12.317Z,101975.94
2023-05-25T19:04:39.084Z,101974.66
2023-05-25T19:07:05.474Z,101980.25
2023-05-25T19:09:31.891Z,101978.56
2023-05-25T19:11:58.338Z,101975.22
2023-05-25T19:14:26.205Z,101968.25
2023-05-25T19:16:52.732Z,101976.66
2023-05-25T19:19:19.213Z,101974.97
2023-05-25T19:21:45.921Z,101965.16
2023-05-25T19:24:12.945Z,101969.13
2023-05-25T19:26:39.384Z,101977.47
2023-05-25T19:29:06.931Z,101975.28
2023-05-25T19:31:34.899Z,101982.44
2023-05-25T19:34:01.444Z,101978.72
2023-05-25T19:36:28.241Z,101974.56
2023-05-25T19:38:54.855Z,101980.50
2023-05-25T19:41:21.261Z,101987.59
2023-05-25T19:43:47.938Z,101988.72
2023-05-25T19:46:15.593Z,101994.66
2023-05-25T19:48:42.553Z,101995.28
2023-05-25T19:51:09.003Z,102001.22
2023-05-25T19:53:36.824Z,101997.06
2023-05-25T19:56:03.447Z,102001.38
2023-05-25T19:58:29.870Z,102004.00
2023-05-25T20:00:57.558Z,102002.66
2023-05-25T20:03:24.149Z,101998.50
2023-05-25T20:05:50.721Z,101997.94
2023-05-25T20:08:17.470Z,102008.69
2023-05-25T20:10:45.067Z,102015.41
2023-05-25T20:13:12.493Z,102005.22
2023-05-25T20:15:39.175Z,102011.94
2023-05-25T20:18:07.735Z,102012.69
2023-05-25T20:20:34.458Z,102013.84
2023-05-25T20:23:01.464Z,102005.41
2023-05-25T20:25:28.741Z,102007.31
2023-05-25T20:27:55.476Z,102017.28
2023-05-25T20:30:22.056Z,102020.03
2023-05-25T20:32:49.346Z,102017.13
2023-05-25T20:35:30.106Z,102013.03
2023-05-25T20:37:56.809Z,102017.84
2023-05-25T20:40:23.178Z,102011.41
2023-05-25T20:42:49.588Z,102008.94
2023-05-25T20:45:16.362Z,102018.22
2023-05-25T20:47:42.843Z,102017.41
2023-05-25T20:50:09.512Z,102022.22
2023-05-25T20:52:36.268Z,102029.84
2023-05-25T20:55:02.754Z,102035.00
2023-05-25T20:57:30.020Z,102037.38
2023-05-25T20:59:59.674Z,102036.09
2023-05-25T21:02:28.303Z,102040.47
2023-05-25T21:04:54.888Z,102044.44
2023-05-25T21:07:21.786Z,102040.47
2023-05-25T21:09:48.411Z,102051.63
2023-05-25T21:12:14.933Z,102053.53
2023-05-25T21:14:43.881Z,102044.16
2023-05-25T21:17:10.662Z,102048.53
2023-05-25T21:19:37.976Z,102055.69
2023-05-25T21:22:04.770Z,102050.78
2023-05-25T21:24:32.342Z,102052.31
2023-05-25T21:26:58.701Z,102070.72
2023-05-25T21:29:25.078Z,102065.00
2023-05-25T21:31:52.603Z,102067.72
2023-05-25T21:34:19.138Z,102068.44
2023-05-25T21:36:45.797Z,102071.16
2023-05-25T21:39:12.298Z,102073.88
2023-05-25T21:41:38.786Z,102081.38
2023-05-25T21:44:05.273Z,102078.44
2023-05-25T21:46:32.819Z,102083.50
2023-05-25T21:48:59.458Z,102083.38
2023-05-25T21:51:25.906Z,102082.81
2023-05-25T21:53:52.622Z,102085.50
2023-05-25T21:56:18.977Z,102087.75
2023-05-25T21:58:47.619Z,102090.47
2023-05-25T22:01:14.039Z,102089.53
2023-05-25T22:03:40.587Z,102091.88
2023-05-25T22:06:08.879Z,102094.47
2023-05-25T22:08:35.754Z,102094.22
2023-05-25T22:11:02.198Z,102095.66
2023-05-25T22:13:29.780Z,102097.88
2023-05-25T22:15:56.208Z,102095.69
2023-05-25T22:18:22.612Z,102098.72
2023-05-25T22:20:49.087Z,102094.16
2023-05-25T22:23:15.901Z,102094.38
2023-05-25T22:25:42.516Z,102099.06
2023-05-25T22:28:10.276Z,102098.47
2023-05-25T22:30:36.767Z,102105.97
2023-05-25T22:33:05.237Z,102102.88
2023-05-25T22:35:31.725Z,102097.13
2023-05-25T22:37:58.118Z,102104.97
2023-05-25T22:40:25.125Z,102107.19
2023-05-25T22:42:51.903Z,102096.16
2023-05-25T22:45:19.948Z,102103.19
2023-05-25T22:47:46.577Z,102108.66
2023-05-25T22:50:13.361Z,102109.72
2023-05-25T22:52:42.832Z,102111.56
2023-05-25T22:55:09.767Z,102113.09
2023-05-25T22:57:36.598Z,102123.00
2023-05-25T23:00:05.536Z,102117.97
2023-05-25T23:02:32.068Z,102118.66
2023-05-25T23:04:58.786Z,102119.34
2023-05-25T23:07:25.298Z,102125.66
2023-05-25T23:09:51.957Z,102124.69
2023-05-25T23:12:18.365Z,102120.09
2023-05-25T23:14:45.043Z,102124.75
2023-05-25T23:17:11.494Z,102127.09
2023-05-25T23:19:38.625Z,102130.94
2023-05-25T23:22:05.290Z,102133.59
2023-05-25T23:24:31.720Z,102127.03
2023-05-25T23:26:58.077Z,102130.53
2023-05-25T23:29:24.441Z,102134.34
2023-05-25T23:31:50.844Z,102135.81
2023-05-25T23:34:17.316Z,102132.91
2023-05-25T23:36:43.820Z,102140.81
2023-05-25T23:39:10.342Z,102137.88
2023-05-25T23:41:37.132Z,102142.66
2023-05-25T23:44:03.762Z,102141.38
2023-05-25T23:46:33.365Z,102145.81
2023-05-25T23:48:59.796Z,102152.25
2023-05-25T23:51:26.376Z,102145.81
2023-05-25T23:53:52.760Z,102151.44
2023-05-25T23:56:19.286Z,102153.06
2023-05-25T23:58:45.889Z,102147.81
